createdAt,value
2016-04-30T00:00:53.022Z,0
2016-04-30T00:01:53.447Z,0
2016-04-30T00:02:39.105Z,0
2016-04-30T00:03:39.076Z,0
2016-04-30T00:04:38.721Z,0
2016-04-30T00:05:38.691Z,0
2016-04-30T00:06:38.694Z,0
2016-04-30T00:07:52.088Z,0
2016-04-30T00:09:38.202Z,0
2016-04-30T00:10:38.643Z,0
2016-04-30T00:11:38.661Z,0
2016-04-30T00:12:38.632Z,0
2016-04-30T00:13:52.573Z,0
2016-04-30T00:14:39.123Z,0
2016-04-30T00:15:38.484Z,0
2016-04-30T00:16:38.690Z,0
2016-04-30T00:17:38.645Z,0
2016-04-30T00:18:39.383Z,0
2016-04-30T00:19:38.511Z,0
2016-04-30T00:20:38.545Z,0
2016-04-30T00:21:38.156Z,0
2016-04-30T00:23:38.647Z,0
2016-04-30T00:24:38.461Z,0
2016-04-30T00:25:38.871Z,0
2016-04-30T00:26:39.077Z,0
2016-04-30T00:27:38.533Z,0
2016-04-30T00:28:38.628Z,0
2016-04-30T00:29:38.647Z,0
2016-04-30T00:30:38.962Z,0
2016-04-30T00:31:39.262Z,0
2016-04-30T00:32:38.655Z,0
2016-04-30T00:33:40.111Z,0
2016-04-30T00:34:38.832Z,0
2016-04-30T00:35:38.647Z,0
2016-04-30T00:36:38.666Z,0
2016-04-30T00:37:38.810Z,0
2016-04-30T00:38:38.499Z,0
2016-04-30T00:39:38.814Z,0
2016-04-30T00:40:38.598Z,0
2016-04-30T00:41:38.617Z,0
2016-04-30T00:42:38.635Z,0
2016-04-30T00:43:38.638Z,0
2016-04-30T00:44:38.703Z,0
2016-04-30T00:45:52.534Z,0
2016-04-30T00:46:38.271Z,0
2016-04-30T00:47:38.617Z,0
2016-04-30T00:48:39.307Z,0
2016-04-30T00:49:37.967Z,0
2016-04-30T00:50:38.641Z,0
2016-04-30T00:51:38.862Z,0
2016-04-30T00:52:38.803Z,0
2016-04-30T00:53:38.118Z,0
2016-04-30T00:54:38.808Z,0
2016-04-30T00:55:39.014Z,0
2016-04-30T00:56:38.703Z,0
2016-04-30T00:57:38.488Z,0
2016-04-30T00:58:38.553Z,0
2016-04-30T00:59:38.994Z,0
2016-04-30T01:00:38.480Z,0
2016-04-30T01:01:38.452Z,0
2016-04-30T01:02:38.610Z,0
2016-04-30T01:03:40.411Z,0
2016-04-30T01:04:38.804Z,0
2016-04-30T01:05:38.649Z,0
2016-04-30T01:06:38.419Z,0
2016-04-30T01:07:38.812Z,0
2016-04-30T01:08:38.815Z,0
2016-04-30T01:09:52.692Z,0
2016-04-30T01:10:38.570Z,0
2016-04-30T01:11:38.448Z,0
2016-04-30T01:12:38.607Z,0
2016-04-30T01:13:38.765Z,0
2016-04-30T01:14:38.768Z,0
2016-04-30T01:15:38.568Z,0
2016-04-30T01:16:38.414Z,0
2016-04-30T01:17:38.557Z,0
2016-04-30T01:18:38.467Z,0
2016-04-30T01:19:38.547Z,0
2016-04-30T01:20:38.753Z,0
2016-04-30T01:21:38.600Z,0
2016-04-30T01:22:38.539Z,0
2016-04-30T01:23:38.745Z,0
2016-04-30T01:24:38.561Z,0
2016-04-30T01:25:38.797Z,0
2016-04-30T01:26:38.566Z,0
2016-04-30T01:27:38.741Z,0
2016-04-30T01:28:38.414Z,0
2016-04-30T01:29:38.558Z,0
2016-04-30T01:30:38.091Z,0
2016-04-30T01:31:38.547Z,0
2016-04-30T01:32:38.380Z,0
2016-04-30T01:33:38.928Z,0
2016-04-30T01:34:38.541Z,0
2016-04-30T01:35:38.558Z,0
2016-04-30T01:36:38.905Z,0
2016-04-30T01:37:38.361Z,0
2016-04-30T01:38:38.582Z,0
2016-04-30T01:39:38.773Z,0
2016-04-30T01:40:38.510Z,0
2016-04-30T01:41:52.606Z,0
2016-04-30T01:42:38.077Z,0
2016-04-30T01:43:38.534Z,0
2016-04-30T01:44:38.802Z,0
2016-04-30T01:45:38.352Z,0
2016-04-30T01:46:38.573Z,0
2016-04-30T01:47:38.950Z,0
2016-04-30T01:48:38.281Z,0
2016-04-30T01:49:38.503Z,0
2016-04-30T01:50:52.770Z,0
2016-04-30T01:51:38.696Z,0
2016-04-30T01:52:38.917Z,0
2016-04-30T01:53:38.529Z,0
2016-04-30T01:54:38.203Z,0
2016-04-30T01:55:52.566Z,0
2016-04-30T01:56:38.647Z,0
2016-04-30T01:57:38.524Z,0
2016-04-30T01:58:37.995Z,0
2016-04-30T01:59:38.389Z,0
2016-04-30T02:00:38.689Z,0
2016-04-30T02:01:39.160Z,0
2016-04-30T02:02:38.506Z,0
2016-04-30T02:03:38.431Z,0
2016-04-30T02:04:38.934Z,0
2016-04-30T02:05:38.311Z,0
2016-04-30T02:06:38.689Z,0
2016-04-30T02:07:38.504Z,0
2016-04-30T02:08:38.866Z,0
2016-04-30T02:09:37.994Z,0
2016-04-30T02:10:38.481Z,0
2016-04-30T02:11:37.999Z,0
2016-04-30T02:12:38.487Z,0
2016-04-30T02:13:38.505Z,0
2016-04-30T02:14:38.367Z,0
2016-04-30T02:15:52.525Z,0
2016-04-30T02:17:38.454Z,0
2016-04-30T02:18:39.721Z,0
2016-04-30T02:19:38.677Z,0
2016-04-30T02:20:38.476Z,0
2016-04-30T02:21:38.870Z,0
2016-04-30T02:22:38.498Z,0
2016-04-30T02:23:38.673Z,0
2016-04-30T02:24:38.644Z,0
2016-04-30T02:25:38.615Z,0
2016-04-30T02:26:38.430Z,0
2016-04-30T02:27:38.433Z,0
2016-04-30T02:28:38.483Z,0
2016-04-30T02:29:38.641Z,0
2016-04-30T02:30:39.161Z,0
2016-04-30T02:32:39.259Z,0
2016-04-30T02:33:38.449Z,0
2016-04-30T02:34:37.421Z,0
2016-04-30T02:35:38.282Z,0
2016-04-30T02:36:38.410Z,0
2016-04-30T02:37:38.600Z,0
2016-04-30T02:38:38.385Z,0
2016-04-30T02:39:38.637Z,0
2016-04-30T02:40:38.780Z,0
2016-04-30T02:41:38.690Z,0
2016-04-30T02:42:38.395Z,0
2016-04-30T02:43:38.382Z,0
2016-04-30T02:44:38.416Z,0
2016-04-30T02:45:38.388Z,0
2016-04-30T02:46:38.218Z,0
2016-04-30T02:47:52.456Z,0
2016-04-30T02:48:39.254Z,0
2016-04-30T02:49:38.446Z,0
2016-04-30T02:50:38.385Z,0
2016-04-30T02:51:38.357Z,0
2016-04-30T02:52:52.656Z,0
2016-04-30T02:53:38.206Z,0
2016-04-30T02:54:38.583Z,0
2016-04-30T02:55:38.383Z,0
2016-04-30T02:56:37.715Z,0
2016-04-30T02:57:52.295Z,0
2016-04-30T02:58:38.454Z,0
2016-04-30T02:59:38.769Z,0
2016-04-30T03:00:38.349Z,0
2016-04-30T03:01:38.586Z,0
2016-04-30T03:02:38.199Z,0
2016-04-30T03:03:38.967Z,0
2016-04-30T03:04:38.189Z,0
2016-04-30T03:05:38.316Z,0
2016-04-30T03:06:38.194Z,0
2016-04-30T03:07:38.088Z,0
2016-04-30T03:08:52.825Z,0
2016-04-30T03:09:52.624Z,0
2016-04-30T03:10:38.596Z,0
2016-04-30T03:11:38.551Z,0
2016-04-30T03:12:38.382Z,0
2016-04-30T03:13:52.244Z,0
2016-04-30T03:14:52.606Z,0
2016-04-30T03:15:38.516Z,0
2016-04-30T03:16:52.377Z,0
2016-04-30T03:17:38.583Z,0
2016-04-30T03:18:38.179Z,0
2016-04-30T03:19:40.042Z,0
2016-04-30T03:20:52.778Z,0
2016-04-30T03:21:38.234Z,0
2016-04-30T03:22:38.128Z,0
2016-04-30T03:23:38.303Z,0
2016-04-30T03:25:52.777Z,0
2016-04-30T03:26:37.795Z,0
2016-04-30T03:27:52.203Z,0
2016-04-30T03:28:38.753Z,0
2016-04-30T03:29:52.631Z,5
2016-04-30T03:30:38.384Z,5
2016-04-30T03:31:38.308Z,5
2016-04-30T03:32:52.407Z,5
2016-04-30T03:33:38.415Z,5
2016-04-30T03:34:40.331Z,5
2016-04-30T03:35:38.699Z,5
2016-04-30T03:36:38.567Z,5
2016-04-30T03:37:38.326Z,5
2016-04-30T03:38:38.253Z,10
2016-04-30T03:39:38.431Z,10
2016-04-30T03:40:38.171Z,10
2016-04-30T03:41:38.615Z,10
2016-04-30T03:42:38.344Z,10
2016-04-30T03:43:37.994Z,15
2016-04-30T03:44:38.628Z,15
2016-04-30T03:45:38.623Z,15
2016-04-30T03:46:38.461Z,15
2016-04-30T03:47:38.059Z,20
2016-04-30T03:48:53.127Z,20
2016-04-30T03:49:38.805Z,20
2016-04-30T03:50:38.482Z,25
2016-04-30T03:51:38.660Z,25
2016-04-30T03:52:38.648Z,25
2016-04-30T03:53:52.917Z,30
2016-04-30T03:54:38.671Z,30
2016-04-30T03:55:38.892Z,30
2016-04-30T03:56:38.911Z,35
2016-04-30T03:57:38.648Z,35
2016-04-30T03:58:38.902Z,35
2016-04-30T03:59:38.623Z,40
2016-04-30T04:00:38.627Z,40
2016-04-30T04:01:52.693Z,45
2016-04-30T04:02:38.602Z,45
2016-04-30T04:03:38.449Z,45
2016-04-30T04:04:38.982Z,45
2016-04-30T04:05:38.453Z,50
2016-04-30T04:06:38.862Z,50
2016-04-30T04:07:38.833Z,50
2016-04-30T04:08:39.462Z,55
2016-04-30T04:09:38.668Z,50
2016-04-30T04:10:38.873Z,55
2016-04-30T04:11:39.204Z,55
2016-04-30T04:12:52.675Z,55
2016-04-30T04:13:38.428Z,60
2016-04-30T04:14:38.446Z,60
2016-04-30T04:15:38.637Z,60
2016-04-30T04:16:38.779Z,65
2016-04-30T04:17:38.611Z,65
2016-04-30T04:18:38.316Z,65
2016-04-30T04:19:38.741Z,70
2016-04-30T04:20:38.806Z,70
2016-04-30T04:21:38.793Z,70
2016-04-30T04:22:52.702Z,75
2016-04-30T04:23:38.845Z,75
2016-04-30T04:25:38.413Z,80
2016-04-30T04:26:38.760Z,80
2016-04-30T04:27:38.700Z,85
2016-04-30T04:28:38.406Z,85
2016-04-30T04:29:38.564Z,85
2016-04-30T04:30:38.755Z,90
2016-04-30T04:31:38.773Z,90
2016-04-30T04:32:38.057Z,95
2016-04-30T04:33:39.074Z,95
2016-04-30T04:34:52.469Z,100
2016-04-30T04:35:38.752Z,100
2016-04-30T04:36:38.693Z,100
2016-04-30T04:37:38.790Z,105
2016-04-30T04:38:52.838Z,105
2016-04-30T04:39:38.560Z,105
2016-04-30T04:40:52.829Z,105
2016-04-30T04:41:38.440Z,110
2016-04-30T04:42:38.537Z,110
2016-04-30T04:43:38.884Z,115
2016-04-30T04:44:37.573Z,110
2016-04-30T04:45:52.529Z,115
2016-04-30T04:46:38.532Z,115
2016-04-30T04:47:38.848Z,115
2016-04-30T04:48:38.381Z,115
2016-04-30T04:49:38.962Z,120
2016-04-30T04:50:38.652Z,120
2016-04-30T04:51:38.577Z,120
2016-04-30T04:52:38.594Z,125
2016-04-30T04:53:38.395Z,125
2016-04-30T04:54:52.663Z,130
2016-04-30T04:55:38.728Z,130
2016-04-30T04:56:38.527Z,130
2016-04-30T04:57:38.655Z,135
2016-04-30T04:58:38.736Z,135
2016-04-30T05:00:38.352Z,140
2016-04-30T05:01:38.385Z,140
2016-04-30T05:02:38.528Z,140
2016-04-30T05:03:38.249Z,140
2016-04-30T05:04:38.237Z,145
2016-04-30T05:05:38.411Z,145
2016-04-30T05:06:38.008Z,145
2016-04-30T05:07:38.729Z,145
2016-04-30T05:08:38.544Z,145
2016-04-30T05:09:53.203Z,150
2016-04-30T05:10:38.518Z,150
2016-04-30T05:11:39.131Z,150
2016-04-30T05:12:38.696Z,155
2016-04-30T05:13:38.761Z,155
2016-04-30T05:14:38.373Z,155
2016-04-30T05:15:38.501Z,160
2016-04-30T05:16:37.862Z,155
2016-04-30T05:17:38.022Z,160
2016-04-30T05:18:38.946Z,160
2016-04-30T05:19:52.512Z,160
2016-04-30T05:20:38.576Z,165
2016-04-30T05:21:38.533Z,165
2016-04-30T05:22:38.785Z,165
2016-04-30T05:23:38.538Z,165
2016-04-30T05:24:38.541Z,165
2016-04-30T05:25:38.590Z,165
2016-04-30T05:26:38.702Z,170
2016-04-30T05:27:38.720Z,170
2016-04-30T05:28:38.567Z,165
2016-04-30T05:29:52.929Z,165
2016-04-30T05:30:38.494Z,165
2016-04-30T05:31:38.731Z,165
2016-04-30T05:32:52.468Z,165
2016-04-30T05:33:38.658Z,165
2016-04-30T05:34:38.396Z,165
2016-04-30T05:36:38.620Z,165
2016-04-30T05:37:38.669Z,165
2016-04-30T05:38:38.735Z,165
2016-04-30T05:39:38.768Z,160
2016-04-30T05:40:38.802Z,160
2016-04-30T05:41:38.367Z,165
2016-04-30T05:43:38.873Z,165
2016-04-30T05:44:39.376Z,165
2016-04-30T05:45:39.004Z,165
2016-04-30T05:46:38.521Z,165
2016-04-30T05:47:38.728Z,165
2016-04-30T05:48:38.527Z,165
2016-04-30T05:49:38.529Z,170
2016-04-30T05:50:38.986Z,170
2016-04-30T05:51:38.722Z,175
2016-04-30T05:52:38.725Z,175
2016-04-30T05:53:52.619Z,175
2016-04-30T05:54:38.792Z,180
2016-04-30T05:55:38.389Z,180
2016-04-30T05:56:38.564Z,180
2016-04-30T05:57:38.130Z,185
2016-04-30T05:58:38.570Z,185
2016-04-30T05:59:38.448Z,190
2016-04-30T06:00:52.668Z,195
2016-04-30T06:01:38.546Z,190
2016-04-30T06:02:38.565Z,190
2016-04-30T06:03:38.458Z,190
2016-04-30T06:04:38.742Z,190
2016-04-30T06:05:38.572Z,190
2016-04-30T06:06:38.544Z,190
2016-04-30T06:07:38.750Z,190
2016-04-30T06:08:38.627Z,195
2016-04-30T06:09:38.396Z,200
2016-04-30T06:10:38.430Z,200
2016-04-30T06:11:38.808Z,205
2016-04-30T06:12:38.670Z,205
2016-04-30T06:13:38.423Z,205
2016-04-30T06:14:38.581Z,210
2016-04-30T06:15:38.756Z,215
2016-04-30T06:17:06.727Z,215
2016-04-30T06:17:39.011Z,215
2016-04-30T06:19:38.892Z,215
2016-04-30T06:20:38.692Z,215
2016-04-30T06:21:38.584Z,220
2016-04-30T06:22:38.572Z,220
2016-04-30T06:23:52.678Z,220
2016-04-30T06:24:38.618Z,220
2016-04-30T06:25:38.605Z,220
2016-04-30T06:26:38.811Z,220
2016-04-30T06:27:38.455Z,220
2016-04-30T06:28:38.332Z,220
2016-04-30T06:30:38.650Z,215
2016-04-30T06:31:52.700Z,215
2016-04-30T06:32:38.890Z,210
2016-04-30T06:33:38.502Z,210
2016-04-30T06:34:38.723Z,210
2016-04-30T06:35:52.913Z,210
2016-04-30T06:36:38.822Z,210
2016-04-30T06:37:38.856Z,210
2016-04-30T06:38:38.484Z,210
2016-04-30T06:39:38.737Z,205
2016-04-30T06:40:38.662Z,215
2016-04-30T06:41:38.570Z,220
2016-04-30T06:42:38.870Z,235
2016-04-30T06:43:38.372Z,235
2016-04-30T06:44:38.875Z,240
2016-04-30T06:45:39.081Z,280
2016-04-30T06:46:39.473Z,300
2016-04-30T06:47:38.883Z,275
2016-04-30T06:48:39.073Z,250
2016-04-30T06:49:38.545Z,250
2016-04-30T06:50:38.782Z,240
2016-04-30T06:51:38.659Z,210
2016-04-30T06:52:38.708Z,205
2016-04-30T06:53:38.697Z,210
2016-04-30T06:55:37.561Z,260
2016-04-30T06:56:38.547Z,250
2016-04-30T06:57:38.707Z,265
2016-04-30T06:58:38.991Z,325
2016-04-30T06:59:38.931Z,390
2016-04-30T07:00:38.778Z,425
2016-04-30T07:01:38.718Z,460
2016-04-30T07:02:38.799Z,345
2016-04-30T07:03:53.177Z,300
2016-04-30T07:04:53.929Z,470
2016-04-30T07:05:38.962Z,475
2016-04-30T07:06:39.185Z,300
2016-04-30T07:07:39.015Z,360
2016-04-30T07:08:38.768Z,425
2016-04-30T07:09:39.005Z,410
2016-04-30T07:10:38.788Z,335
2016-04-30T07:11:53.495Z,465
2016-04-30T07:12:38.279Z,430
2016-04-30T07:13:38.828Z,265
2016-04-30T07:14:38.799Z,210
2016-04-30T07:15:38.506Z,205
2016-04-30T07:16:38.837Z,200
2016-04-30T07:17:38.854Z,215
2016-04-30T07:18:38.810Z,255
2016-04-30T07:19:53.172Z,260
2016-04-30T07:20:39.081Z,260
2016-04-30T07:21:38.709Z,240
2016-04-30T07:22:53.118Z,220
2016-04-30T07:23:38.855Z,205
2016-04-30T07:24:39.483Z,205
2016-04-30T07:25:38.470Z,205
2016-04-30T07:27:38.944Z,205
2016-04-30T07:29:38.669Z,220
2016-04-30T07:30:39.358Z,215
2016-04-30T07:31:38.783Z,240
2016-04-30T07:32:39.066Z,215
2016-04-30T07:33:38.975Z,210
2016-04-30T07:35:38.935Z,210
2016-04-30T07:36:38.952Z,215
2016-04-30T07:37:53.033Z,210
2016-04-30T07:38:38.802Z,210
2016-04-30T07:39:38.976Z,210
2016-04-30T07:40:39.166Z,210
2016-04-30T07:41:39.185Z,210
2016-04-30T07:42:38.828Z,210
2016-04-30T07:43:39.018Z,215
2016-04-30T07:44:38.662Z,210
2016-04-30T07:45:39.117Z,215
2016-04-30T07:46:39.229Z,215
2016-04-30T07:47:39.060Z,215
2016-04-30T07:48:38.845Z,215
2016-04-30T07:49:39.518Z,215
2016-04-30T07:50:38.787Z,215
2016-04-30T07:51:52.977Z,215
2016-04-30T07:52:39.042Z,215
2016-04-30T07:53:39.061Z,210
2016-04-30T07:54:39.267Z,205
2016-04-30T07:55:38.769Z,205
2016-04-30T07:57:39.150Z,210
2016-04-30T07:58:39.152Z,215
2016-04-30T07:59:39.405Z,215
2016-04-30T08:00:39.142Z,210
2016-04-30T08:01:39.113Z,205
2016-04-30T08:02:39.116Z,205
2016-04-30T08:03:39.181Z,205
2016-04-30T08:04:39.699Z,205
2016-04-30T08:06:39.235Z,205
2016-04-30T08:07:38.552Z,210
2016-04-30T08:08:39.383Z,205
2016-04-30T08:09:53.526Z,205
2016-04-30T08:10:39.199Z,205
2016-04-30T08:11:39.234Z,205
2016-04-30T08:13:07.377Z,215
2016-04-30T08:13:53.348Z,210
2016-04-30T08:14:39.679Z,210
2016-04-30T08:15:39.260Z,210
2016-04-30T08:16:39.263Z,210
2016-04-30T08:17:39.437Z,215
2016-04-30T08:18:39.268Z,215
2016-04-30T08:19:39.287Z,215
2016-04-30T08:20:39.336Z,220
2016-04-30T08:21:53.792Z,220
2016-04-30T08:22:39.186Z,220
2016-04-30T08:23:38.845Z,215
2016-04-30T08:24:53.395Z,210
2016-04-30T08:25:39.381Z,210
2016-04-30T08:27:53.278Z,200
2016-04-30T08:28:39.342Z,200
2016-04-30T08:29:38.875Z,210
2016-04-30T08:30:39.614Z,205
2016-04-30T08:31:53.647Z,200
2016-04-30T08:32:39.384Z,200
2016-04-30T08:33:39.590Z,200
2016-04-30T08:34:41.639Z,205
2016-04-30T08:35:39.485Z,200
2016-04-30T08:36:53.317Z,200
2016-04-30T08:37:53.460Z,205
2016-04-30T08:39:39.340Z,205
2016-04-30T08:40:53.780Z,220
2016-04-30T08:41:39.862Z,215
2016-04-30T08:42:39.442Z,205
2016-04-30T08:43:39.335Z,210
2016-04-30T08:44:38.823Z,210
2016-04-30T08:45:39.513Z,210
2016-04-30T08:46:40.296Z,215
2016-04-30T08:47:39.862Z,220
2016-04-30T08:48:39.552Z,225
2016-04-30T08:49:38.743Z,220
2016-04-30T08:50:39.214Z,220
2016-04-30T08:51:39.389Z,220
2016-04-30T08:52:53.829Z,220
2016-04-30T08:53:39.815Z,225
2016-04-30T08:54:39.083Z,225
2016-04-30T08:55:39.555Z,225
2016-04-30T08:56:40.245Z,225
2016-04-30T08:58:39.657Z,225
2016-04-30T08:59:39.831Z,225
2016-04-30T09:00:39.569Z,220
2016-04-30T09:01:53.681Z,220
2016-04-30T09:02:53.871Z,225
2016-04-30T09:03:39.296Z,235
2016-04-30T09:04:39.486Z,235
2016-04-30T09:05:53.942Z,220
2016-04-30T09:06:39.725Z,215
2016-04-30T09:07:40.025Z,215
2016-04-30T09:08:39.544Z,220
2016-04-30T09:09:39.749Z,215
2016-04-30T09:10:39.564Z,220
2016-04-30T09:11:39.707Z,220
2016-04-30T09:12:39.710Z,220
2016-04-30T09:14:40.075Z,225
2016-04-30T09:15:39.734Z,225
2016-04-30T09:16:39.737Z,225
2016-04-30T09:17:39.740Z,225
2016-04-30T09:18:39.961Z,220
2016-04-30T09:19:41.464Z,220
2016-04-30T09:20:39.779Z,225
2016-04-30T09:21:40.001Z,215
2016-04-30T09:22:39.628Z,215
2016-04-30T09:23:40.037Z,215
2016-04-30T09:24:39.978Z,215
2016-04-30T09:25:53.918Z,220
2016-04-30T09:26:39.653Z,225
2016-04-30T09:27:40.016Z,225
2016-04-30T09:28:39.863Z,225
2016-04-30T09:29:53.928Z,230
2016-04-30T09:30:39.883Z,230
2016-04-30T09:31:39.636Z,230
2016-04-30T09:32:40.295Z,225
2016-04-30T09:33:39.877Z,225
2016-04-30T09:35:39.929Z,220
2016-04-30T09:36:40.103Z,220
2016-04-30T09:37:39.652Z,220
2016-04-30T09:38:39.983Z,220
2016-04-30T09:39:40.189Z,220
2016-04-30T09:40:39.989Z,220
2016-04-30T09:41:39.648Z,220
2016-04-30T09:42:39.822Z,220
2016-04-30T09:43:39.809Z,220
2016-04-30T09:44:39.875Z,220
2016-04-30T09:45:40.612Z,220
2016-04-30T09:46:40.020Z,220
2016-04-30T09:47:39.868Z,220
2016-04-30T09:48:40.042Z,220
2016-04-30T09:49:40.544Z,215
2016-04-30T09:50:40.079Z,220
2016-04-30T09:51:40.237Z,225
2016-04-30T09:52:40.303Z,220
2016-04-30T09:53:54.009Z,220
2016-04-30T09:54:40.104Z,220
2016-04-30T09:55:54.201Z,220
2016-04-30T09:56:40.094Z,220
2016-04-30T09:57:40.175Z,220
2016-04-30T09:58:43.350Z,220
2016-04-30T09:59:39.490Z,220
2016-04-30T10:00:40.120Z,220
2016-04-30T10:01:40.139Z,225
2016-04-30T10:02:40.392Z,215
2016-04-30T10:03:40.048Z,210
2016-04-30T10:04:40.678Z,220
2016-04-30T10:05:54.275Z,215
2016-04-30T10:06:39.869Z,215
2016-04-30T10:07:40.277Z,210
2016-04-30T10:08:40.889Z,215
2016-04-30T10:09:54.926Z,215
2016-04-30T10:10:40.473Z,215
2016-04-30T10:11:39.647Z,215
2016-04-30T10:12:40.244Z,215
2016-04-30T10:13:40.746Z,215
2016-04-30T10:14:54.565Z,215
2016-04-30T10:15:40.705Z,215
2016-04-30T10:16:40.536Z,215
2016-04-30T10:17:41.570Z,225
2016-04-30T10:18:39.948Z,230
2016-04-30T10:19:40.357Z,230
2016-04-30T10:20:40.234Z,235
2016-04-30T10:21:40.363Z,240
2016-04-30T10:22:40.068Z,240
2016-04-30T10:23:40.368Z,235
2016-04-30T10:24:40.590Z,245
2016-04-30T10:25:40.404Z,235
2016-04-30T10:26:40.828Z,225
2016-04-30T10:27:40.426Z,225
2016-04-30T10:28:40.647Z,225
2016-04-30T10:30:08.559Z,230
2016-04-30T10:30:40.653Z,230
2016-04-30T10:31:40.280Z,235
2016-04-30T10:32:40.564Z,235
2016-04-30T10:33:40.473Z,235
2016-04-30T10:34:41.350Z,240
2016-04-30T10:35:40.509Z,245
2016-04-30T10:36:40.496Z,245
2016-04-30T10:37:40.343Z,245
2016-04-30T10:38:40.705Z,245
2016-04-30T10:39:40.552Z,245
2016-04-30T10:40:54.447Z,245
2016-04-30T10:41:40.775Z,245
2016-04-30T10:42:54.703Z,245
2016-04-30T10:43:40.641Z,245
2016-04-30T10:44:40.580Z,245
2016-04-30T10:45:40.286Z,250
2016-04-30T10:46:40.664Z,245
2016-04-30T10:47:40.604Z,250
2016-04-30T10:48:40.638Z,255
2016-04-30T10:49:40.594Z,260
2016-04-30T10:50:40.659Z,260
2016-04-30T10:51:40.849Z,265
2016-04-30T10:52:40.867Z,270
2016-04-30T10:53:40.699Z,275
2016-04-30T10:54:40.952Z,280
2016-04-30T10:55:54.988Z,290
2016-04-30T10:56:40.910Z,290
2016-04-30T10:57:40.553Z,295
2016-04-30T10:59:41.184Z,305
2016-04-30T11:00:40.451Z,305
2016-04-30T11:01:40.782Z,310
2016-04-30T11:02:40.769Z,320
2016-04-30T11:03:41.054Z,330
2016-04-30T11:04:41.509Z,335
2016-04-30T11:05:41.261Z,345
2016-04-30T11:06:40.859Z,350
2016-04-30T11:07:40.564Z,355
2016-04-30T11:08:40.863Z,365
2016-04-30T11:09:41.101Z,380
2016-04-30T11:10:40.886Z,385
2016-04-30T11:11:40.903Z,400
2016-04-30T11:12:40.608Z,405
2016-04-30T11:13:41.752Z,405
2016-04-30T11:14:40.980Z,400
2016-04-30T11:15:40.307Z,415
2016-04-30T11:16:41.668Z,420
2016-04-30T11:17:40.999Z,425
2016-04-30T11:18:40.799Z,430
2016-04-30T11:19:41.880Z,425
2016-04-30T11:20:40.586Z,425
2016-04-30T11:21:41.198Z,425
2016-04-30T11:22:41.107Z,430
2016-04-30T11:23:40.921Z,440
2016-04-30T11:24:40.565Z,440
2016-04-30T11:25:40.912Z,445
2016-04-30T11:26:55.417Z,460
2016-04-30T11:27:41.089Z,460
2016-04-30T11:28:41.310Z,455
2016-04-30T11:30:41.050Z,445
2016-04-30T11:31:41.740Z,440
2016-04-30T11:32:41.352Z,430
2016-04-30T11:33:55.780Z,425
2016-04-30T11:34:40.889Z,420
2016-04-30T11:35:55.536Z,420
2016-04-30T11:36:41.036Z,425
2016-04-30T11:37:41.866Z,420
2016-04-30T11:38:41.274Z,415
2016-04-30T11:39:41.527Z,410
2016-04-30T11:40:40.764Z,405
2016-04-30T11:41:54.989Z,395
2016-04-30T11:42:41.505Z,395
2016-04-30T11:43:41.100Z,395
2016-04-30T11:44:41.057Z,395
2016-04-30T11:45:41.310Z,400
2016-04-30T11:46:41.172Z,405
2016-04-30T11:47:41.236Z,410
2016-04-30T11:48:41.629Z,415
2016-04-30T11:49:41.757Z,415
2016-04-30T11:50:41.229Z,425
2016-04-30T11:51:41.638Z,430
2016-04-30T11:52:55.518Z,430
2016-04-30T11:53:41.034Z,435
2016-04-30T11:54:41.364Z,440
2016-04-30T11:55:41.539Z,445
2016-04-30T11:56:42.339Z,440
2016-04-30T11:57:42.107Z,440
2016-04-30T11:58:41.719Z,445
2016-04-30T11:59:41.768Z,455
2016-04-30T12:00:41.365Z,455
2016-04-30T12:01:41.431Z,455
2016-04-30T12:02:41.793Z,455
2016-04-30T12:03:41.575Z,450
2016-04-30T12:04:41.781Z,455
2016-04-30T12:05:55.709Z,455
2016-04-30T12:06:41.522Z,450
2016-04-30T12:07:41.181Z,450
2016-04-30T12:08:56.327Z,450
2016-04-30T12:09:41.655Z,450
2016-04-30T12:10:42.110Z,455
2016-04-30T12:11:41.457Z,455
2016-04-30T12:12:41.585Z,455
2016-04-30T12:13:42.447Z,460
2016-04-30T12:15:09.843Z,465
2016-04-30T12:15:41.999Z,465
2016-04-30T12:16:41.689Z,475
2016-04-30T12:17:41.645Z,480
2016-04-30T12:18:41.538Z,485
2016-04-30T12:19:42.635Z,485
2016-04-30T12:20:41.888Z,490
2016-04-30T12:21:41.968Z,480
2016-04-30T12:22:42.080Z,475
2016-04-30T12:23:42.145Z,475
2016-04-30T12:24:41.742Z,470
2016-04-30T12:25:41.776Z,470
2016-04-30T12:26:42.045Z,465
2016-04-30T12:27:56.050Z,465
2016-04-30T12:28:41.893Z,465
2016-04-30T12:29:41.974Z,470
2016-04-30T12:30:42.196Z,480
2016-04-30T12:31:42.448Z,475
2016-04-30T12:32:41.263Z,480
2016-04-30T12:33:42.297Z,485
2016-04-30T12:34:43.112Z,490
2016-04-30T12:35:42.084Z,495
2016-04-30T12:36:42.086Z,495
2016-04-30T12:37:42.183Z,505
2016-04-30T12:38:41.494Z,505
2016-04-30T12:39:42.240Z,515
2016-04-30T12:40:41.956Z,510
2016-04-30T12:41:42.296Z,515
2016-04-30T12:42:42.276Z,515
2016-04-30T12:43:42.453Z,520
2016-04-30T12:44:42.440Z,525
2016-04-30T12:45:42.692Z,530
2016-04-30T12:46:42.350Z,535
2016-04-30T12:47:42.227Z,530
2016-04-30T12:48:42.616Z,530
2016-04-30T12:49:43.265Z,535
2016-04-30T12:50:43.273Z,535
2016-04-30T12:51:42.656Z,535
2016-04-30T12:52:42.898Z,535
2016-04-30T12:53:42.905Z,525
2016-04-30T12:54:42.988Z,530
2016-04-30T12:55:42.726Z,530
2016-04-30T12:56:42.794Z,525
2016-04-30T12:57:42.596Z,540
2016-04-30T12:58:43.162Z,535
2016-04-30T12:59:43.025Z,530
2016-04-30T13:00:42.153Z,520
2016-04-30T13:02:42.706Z,515
2016-04-30T13:03:42.756Z,515
2016-04-30T13:04:45.603Z,515
2016-04-30T13:05:43.184Z,520
2016-04-30T13:06:43.015Z,525
2016-04-30T13:07:42.971Z,520
2016-04-30T13:08:43.130Z,520
2016-04-30T13:09:42.930Z,525
2016-04-30T13:10:43.651Z,520
2016-04-30T13:11:43.029Z,520
2016-04-30T13:12:43.064Z,520
2016-04-30T13:13:43.238Z,520
2016-04-30T13:14:43.240Z,515
2016-04-30T13:15:43.071Z,515
2016-04-30T13:16:43.355Z,515
2016-04-30T13:17:43.077Z,515
2016-04-30T13:18:42.986Z,525
2016-04-30T13:19:43.192Z,520
2016-04-30T13:20:43.177Z,515
2016-04-30T13:21:43.196Z,515
2016-04-30T13:22:43.027Z,515
2016-04-30T13:23:43.405Z,510
2016-04-30T13:24:43.205Z,510
2016-04-30T13:25:43.645Z,495
2016-04-30T13:26:42.929Z,490
2016-04-30T13:27:43.260Z,490
2016-04-30T13:28:43.278Z,485
2016-04-30T13:29:43.062Z,480
2016-04-30T13:30:43.298Z,475
2016-04-30T13:31:43.551Z,475
2016-04-30T13:32:57.276Z,470
2016-04-30T13:33:43.385Z,465
2016-04-30T13:34:44.545Z,455
2016-04-30T13:35:43.281Z,445
2016-04-30T13:36:43.424Z,435
2016-04-30T13:37:57.758Z,435
2016-04-30T13:38:43.508Z,430
2016-04-30T13:39:43.448Z,435
2016-04-30T13:40:43.450Z,435
2016-04-30T13:41:43.376Z,435
2016-04-30T13:42:43.362Z,430
2016-04-30T13:43:43.740Z,435
2016-04-30T13:44:43.384Z,435
2016-04-30T13:45:43.574Z,430
2016-04-30T13:46:43.764Z,435
2016-04-30T13:47:43.594Z,440
2016-04-30T13:48:43.816Z,440
2016-04-30T13:49:45.381Z,445
2016-04-30T13:50:43.743Z,450
2016-04-30T13:51:43.918Z,450
2016-04-30T13:52:43.733Z,450
2016-04-30T13:53:43.721Z,455
2016-04-30T13:54:43.754Z,460
2016-04-30T13:55:57.650Z,455
2016-04-30T13:57:43.575Z,455
2016-04-30T13:58:43.999Z,460
2016-04-30T13:59:43.674Z,450
2016-04-30T14:00:44.208Z,440
2016-04-30T14:01:43.804Z,445
2016-04-30T14:02:43.651Z,445
2016-04-30T14:03:44.404Z,440
2016-04-30T14:04:43.703Z,435
2016-04-30T14:05:43.768Z,435
2016-04-30T14:06:44.161Z,435
2016-04-30T14:07:43.929Z,440
2016-04-30T14:08:57.998Z,445
2016-04-30T14:09:44.139Z,445
2016-04-30T14:10:44.187Z,445
2016-04-30T14:11:43.987Z,455
2016-04-30T14:12:44.272Z,455
2016-04-30T14:13:44.211Z,455
2016-04-30T14:14:43.917Z,465
2016-04-30T14:15:44.061Z,465
2016-04-30T14:16:44.157Z,465
2016-04-30T14:17:44.128Z,470
2016-04-30T14:18:47.084Z,465
2016-04-30T14:19:44.416Z,470
2016-04-30T14:20:44.136Z,475
2016-04-30T14:21:43.452Z,470
2016-04-30T14:22:44.564Z,470
2016-04-30T14:23:44.347Z,465
2016-04-30T14:24:44.147Z,465
2016-04-30T14:25:44.181Z,460
2016-04-30T14:26:44.388Z,465
2016-04-30T14:27:44.046Z,460
2016-04-30T14:28:44.252Z,450